createdAt,value
2019-04-30T00:00:34.790Z,95348.47
2019-04-30T00:05:35.263Z,95353.47
2019-04-30T00:10:36.878Z,95348.17
2019-04-30T00:15:35.689Z,95345.54
2019-04-30T00:20:37.159Z,95336.67
2019-04-30T00:25:32.268Z,95335.14
2019-04-30T00:30:29.304Z,95337.19
2019-04-30T00:35:26.904Z,95326.59
2019-04-30T00:40:26.735Z,95322.67
2019-04-30T00:45:23.092Z,95318.70
2019-04-30T00:50:20.130Z,95325.27
2019-04-30T00:55:17.253Z,95312.78
2019-04-30T01:00:19.558Z,95311.60
2019-04-30T01:05:16.876Z,95316.69
2019-04-30T01:10:15.202Z,95320.89
2019-04-30T01:15:14.440Z,95319.17
2019-04-30T01:20:12.143Z,95317.34
2019-04-30T01:25:13.460Z,95307.70
2019-04-30T01:30:13.236Z,95310.53
2019-04-30T01:35:08.931Z,95304.13
2019-04-30T01:40:10.559Z,95307.09
2019-04-30T01:45:06.272Z,95321.83
2019-04-30T01:50:05.977Z,95316.33
2019-04-30T01:55:05.192Z,95294.97
2019-04-30T02:00:15.348Z,95300.20
2019-04-30T02:05:13.150Z,95311.39
2019-04-30T02:10:10.391Z,95306.58
2019-04-30T02:15:09.510Z,95297.40
2019-04-30T02:20:08.931Z,95305.12
2019-04-30T02:25:09.687Z,95298.77
2019-04-30T02:30:11.223Z,95305.02
2019-04-30T02:35:19.422Z,95306.37
2019-04-30T02:40:16.713Z,95305.86
2019-04-30T02:45:14.426Z,95302.50
2019-04-30T02:50:18.339Z,95299.20
2019-04-30T02:55:16.170Z,95293.52
2019-04-30T03:00:15.113Z,95286.58
2019-04-30T03:05:16.741Z,95294.14
2019-04-30T03:10:13.959Z,95287.29
2019-04-30T03:15:12.331Z,95279.52
2019-04-30T03:20:26.910Z,95281.48
2019-04-30T03:25:11.739Z,95283.17
2019-04-30T03:30:11.941Z,95289.25
2019-04-30T03:35:12.795Z,95284.60
2019-04-30T03:40:13.209Z,95275.97
2019-04-30T03:45:12.106Z,95283.53
2019-04-30T03:50:12.900Z,95276.55
2019-04-30T03:55:11.402Z,95283.22
2019-04-30T04:00:09.647Z,95275.04
2019-04-30T04:05:13.557Z,95277.09
2019-04-30T04:10:13.023Z,95275.17
2019-04-30T04:15:10.748Z,95276.95
2019-04-30T04:20:10.902Z,95277.81
2019-04-30T04:25:12.732Z,95278.97
2019-04-30T04:30:10.349Z,95273.63
2019-04-30T04:35:09.824Z,95281.59
2019-04-30T04:40:06.324Z,95272.62
2019-04-30T04:45:04.689Z,95269.45
2019-04-30T04:50:02.400Z,95273.38
2019-04-30T04:55:01.162Z,95274.11
2019-04-30T05:00:06.918Z,95269.17
2019-04-30T05:04:59.950Z,95273.28
2019-04-30T05:10:00.572Z,95262.93
2019-04-30T05:14:59.902Z,95268.44
2019-04-30T05:19:58.986Z,95271.34
2019-04-30T05:24:58.952Z,95266.03
2019-04-30T05:29:59.580Z,95276.09
2019-04-30T05:34:58.626Z,95239.26
2019-04-30T05:39:55.715Z,95268.16
2019-04-30T05:44:54.652Z,95267.98
2019-04-30T05:49:53.516Z,95266.56
2019-04-30T05:54:50.583Z,95265.17
2019-04-30T05:59:51.405Z,95253.91
2019-04-30T06:04:49.173Z,95245.09
2019-04-30T06:10:02.340Z,95244.52
2019-04-30T06:15:06.758Z,95248.65
2019-04-30T06:20:16.168Z,95245.74
2019-04-30T06:25:05.638Z,95242.61
2019-04-30T06:30:03.033Z,95252.82
2019-04-30T06:35:00.494Z,95249.29
2019-04-30T06:39:59.100Z,95243.04
2019-04-30T06:44:59.686Z,95246.25
2019-04-30T06:50:01.259Z,95242.61
2019-04-30T06:54:55.764Z,95240.00
2019-04-30T06:59:52.808Z,95247.95
2019-04-30T07:04:49.873Z,95250.36
2019-04-30T07:09:58.411Z,95244.97
2019-04-30T07:14:52.025Z,95250.50
2019-04-30T07:19:56.585Z,95255.28
2019-04-30T07:24:50.247Z,95250.55
2019-04-30T07:29:49.388Z,95250.66
2019-04-30T07:34:46.419Z,95243.23
2019-04-30T07:39:49.357Z,95248.84
2019-04-30T07:44:46.636Z,95249.88
2019-04-30T07:49:51.583Z,95248.77
2019-04-30T07:54:42.610Z,95242.30
2019-04-30T07:59:39.825Z,95247.04
2019-04-30T08:04:44.956Z,95241.47
2019-04-30T08:09:42.391Z,95233.95
2019-04-30T08:14:39.743Z,95237.55
2019-04-30T08:19:38.779Z,95229.06
2019-04-30T08:24:36.661Z,95234.80
2019-04-30T08:29:33.808Z,95225.78
2019-04-30T08:34:32.450Z,95231.80
2019-04-30T08:39:31.802Z,95223.92
2019-04-30T08:44:29.509Z,95225.77
2019-04-30T08:49:27.089Z,95234.55
2019-04-30T08:54:24.537Z,95233.74
2019-04-30T08:59:21.624Z,95228.49
2019-04-30T09:04:20.317Z,95229.63
2019-04-30T09:09:18.829Z,95233.98
2019-04-30T09:14:15.986Z,95236.83
2019-04-30T09:19:13.085Z,95233.55
2019-04-30T09:24:10.200Z,95229.55
2019-04-30T09:29:09.406Z,95234.22
2019-04-30T09:34:15.239Z,95232.80
2019-04-30T09:39:08.773Z,95218.74
2019-04-30T09:44:05.304Z,95216.05
2019-04-30T09:49:02.394Z,95224.69
2019-04-30T09:54:03.182Z,95211.06
2019-04-30T09:58:59.352Z,95209.05
2019-04-30T10:04:00.512Z,95207.55
2019-04-30T10:08:59.589Z,95203.91
2019-04-30T10:13:56.702Z,95210.32
2019-04-30T10:18:53.859Z,95206.06
2019-04-30T10:23:50.995Z,95210.98
2019-04-30T10:28:51.569Z,95208.48
2019-04-30T10:33:48.793Z,95206.06
2019-04-30T10:38:45.760Z,95201.87
2019-04-30T10:43:43.026Z,95203.79
2019-04-30T10:48:40.081Z,95198.60
2019-04-30T10:53:37.223Z,95183.75
2019-04-30T10:58:34.373Z,95181.59
2019-04-30T11:03:32.607Z,95165.95
2019-04-30T11:08:29.614Z,95161.13
2019-04-30T11:13:26.739Z,95164.44
2019-04-30T11:18:26.758Z,95164.62
2019-04-30T11:23:29.662Z,95156.25
2019-04-30T11:28:27.714Z,95158.19
2019-04-30T11:33:25.221Z,95159.55
2019-04-30T11:38:22.298Z,95156.97
2019-04-30T11:43:20.162Z,95156.95
2019-04-30T11:48:19.036Z,95153.09
2019-04-30T11:53:26.545Z,95142.84
2019-04-30T11:58:21.666Z,95140.38
2019-04-30T12:03:13.930Z,95129.48
2019-04-30T12:08:10.898Z,95118.22
2019-04-30T12:13:09.754Z,95120.33
2019-04-30T12:18:06.929Z,95126.14
2019-04-30T12:23:14.979Z,95126.02
2019-04-30T12:28:11.969Z,95116.48
2019-04-30T12:33:10.806Z,95121.84
2019-04-30T12:38:08.812Z,95111.86
2019-04-30T12:43:07.225Z,95104.53
2019-04-30T12:48:06.144Z,95096.52
2019-04-30T12:53:09.392Z,95090.05
2019-04-30T12:58:09.650Z,95075.42
2019-04-30T13:03:06.770Z,95085.81
2019-04-30T13:08:09.689Z,95096.00
2019-04-30T13:13:06.686Z,95095.25
2019-04-30T13:18:05.352Z,95087.90
2019-04-30T13:23:04.840Z,95088.75
2019-04-30T13:28:07.527Z,95093.94
2019-04-30T13:33:09.331Z,95083.00
2019-04-30T13:38:12.767Z,95087.95
2019-04-30T13:43:11.640Z,95085.59
2019-04-30T13:48:09.006Z,95078.84
2019-04-30T13:53:06.188Z,95071.98
2019-04-30T13:58:03.169Z,95075.80
2019-04-30T14:03:14.567Z,95072.64
2019-04-30T14:13:27.425Z,95075.24
2019-04-30T14:18:30.987Z,95063.05
2019-04-30T14:23:23.308Z,95056.22
2019-04-30T14:28:21.216Z,95055.58
2019-04-30T14:33:26.354Z,95081.14
2019-04-30T14:38:19.074Z,95084.56
2019-04-30T14:43:20.623Z,95079.75
2019-04-30T14:48:23.891Z,95076.89
2019-04-30T14:53:21.396Z,95068.61
2019-04-30T14:58:32.235Z,95063.22
2019-04-30T15:03:34.046Z,95059.98
2019-04-30T15:08:31.343Z,95080.84
2019-04-30T15:13:29.514Z,95081.62
2019-04-30T15:18:26.665Z,95074.16
2019-04-30T15:23:25.477Z,95079.45
2019-04-30T15:28:22.528Z,95080.98
2019-04-30T15:33:22.149Z,95077.47
2019-04-30T15:38:20.896Z,95082.41
2019-04-30T15:43:18.708Z,95083.61
2019-04-30T15:48:15.652Z,95088.53
2019-04-30T15:53:13.035Z,95072.86
2019-04-30T15:58:28.984Z,95076.24
2019-04-30T16:03:30.831Z,95082.43
2019-04-30T16:08:29.725Z,95077.63
2019-04-30T16:13:32.276Z,95067.40
2019-04-30T16:18:31.063Z,95068.50
2019-04-30T16:23:28.203Z,95062.66
2019-04-30T16:28:25.139Z,95061.91
2019-04-30T16:33:22.203Z,95065.76
2019-04-30T16:38:20.932Z,95071.41
2019-04-30T16:43:20.015Z,95081.61
2019-04-30T16:48:19.179Z,95093.17
2019-04-30T16:53:16.020Z,95101.62
2019-04-30T16:58:13.036Z,95092.66
2019-04-30T17:03:12.140Z,95100.22
2019-04-30T17:08:10.920Z,95102.50
2019-04-30T17:13:15.579Z,95104.16
2019-04-30T17:18:12.524Z,95103.75
2019-04-30T17:23:09.625Z,95111.16
2019-04-30T17:28:08.772Z,95104.48
2019-04-30T17:33:06.145Z,95101.36
2019-04-30T17:38:03.074Z,95112.91
2019-04-30T17:43:00.101Z,95110.42
2019-04-30T17:47:57.113Z,95128.84
2019-04-30T17:52:54.485Z,95122.34
2019-04-30T17:57:51.519Z,95129.59
2019-04-30T18:02:48.802Z,95132.94
2019-04-30T18:07:49.645Z,95124.67
2019-04-30T18:12:46.653Z,95121.67
2019-04-30T18:17:45.537Z,95125.11
2019-04-30T18:22:49.865Z,95122.56
2019-04-30T18:27:56.025Z,95118.91
2019-04-30T18:32:53.063Z,95123.33
2019-04-30T18:37:50.128Z,95123.27
2019-04-30T18:42:47.073Z,95119.97
2019-04-30T18:47:46.404Z,95129.70
2019-04-30T18:52:44.893Z,95134.20
2019-04-30T18:57:41.957Z,95132.75
2019-04-30T19:02:40.533Z,95145.80
2019-04-30T19:07:42.618Z,95154.42
2019-04-30T19:12:42.563Z,95142.74
2019-04-30T19:17:57.945Z,95142.68
2019-04-30T19:22:55.130Z,95142.23
2019-04-30T19:27:52.721Z,95145.64
2019-04-30T19:32:49.760Z,95135.50
2019-04-30T19:37:48.632Z,95124.89
2019-04-30T19:42:48.323Z,95130.73
2019-04-30T19:47:44.818Z,95123.02
2019-04-30T19:52:42.007Z,95118.92
2019-04-30T19:57:40.719Z,95117.62
2019-04-30T20:02:39.213Z,95115.33
2019-04-30T20:07:36.923Z,95112.64
2019-04-30T20:12:36.517Z,95097.27
2019-04-30T20:17:33.982Z,95098.34
2019-04-30T20:22:31.066Z,95091.86
2019-04-30T20:27:29.824Z,95076.31
2019-04-30T20:32:33.860Z,95077.56
2019-04-30T20:37:25.971Z,95060.13
2019-04-30T20:42:22.902Z,95059.75
2019-04-30T20:47:21.091Z,95058.17
2019-04-30T20:52:20.409Z,95056.55
2019-04-30T20:57:17.258Z,95050.35
2019-04-30T21:02:15.537Z,95047.19
2019-04-30T21:07:12.545Z,95060.26
2019-04-30T21:12:09.624Z,95044.10
2019-04-30T21:17:06.856Z,95038.22
2019-04-30T21:22:03.875Z,95039.23
2019-04-30T21:27:00.882Z,95052.84
2019-04-30T21:32:02.554Z,95041.41
2019-04-30T21:36:59.791Z,95052.56
2019-04-30T21:41:56.822Z,95059.40
2019-04-30T21:46:53.767Z,95066.10
2019-04-30T21:51:50.806Z,95065.03
2019-04-30T21:56:47.839Z,95057.42
2019-04-30T22:01:45.228Z,95054.44
2019-04-30T22:06:42.757Z,95045.50
2019-04-30T22:11:39.762Z,95039.19
2019-04-30T22:16:36.817Z,95032.50
2019-04-30T22:21:33.837Z,95034.45
2019-04-30T22:26:30.797Z,95029.61
2019-04-30T22:31:29.675Z,95020.20
2019-04-30T22:36:31.611Z,95012.44
2019-04-30T22:41:30.414Z,95004.23
2019-04-30T22:46:29.257Z,95003.72
2019-04-30T22:51:26.728Z,95005.78
2019-04-30T22:56:23.812Z,94990.82
2019-04-30T23:01:26.436Z,94981.69
2019-04-30T23:06:23.889Z,94975.64
2019-04-30T23:11:20.934Z,94978.52
2019-04-30T23:16:17.868Z,94971.56
2019-04-30T23:21:14.871Z,94977.41
2019-04-30T23:26:11.975Z,94962.33
2019-04-30T23:31:09.075Z,94946.63
2019-04-30T23:36:06.017Z,94936.58
2019-04-30T23:41:03.123Z,94931.16
2019-04-30T23:46:00.065Z,94931.74
2019-04-30T23:50:57.099Z,94938.42
2019-04-30T23:55:54.039Z,94920.28
